Terminal Aerodrome Forecast
Issued by NWS Blacksburg, VA

Home | Current Version | Previous Version | Text Only | Print | Product List | Glossary On
Versions: 1 2 3 4 5 6 7 8 9 10 11 12
000
FTUS41 KRNK 230534 AAA
TAFROA
TAF AMD
KROA 230534Z 2306/2406 VRB03KT P6SM OVC045
     FM230900 VRB03KT P6SM OVC030
     FM231300 11005KT P6SM VCSH OVC015
     FM231800 12010KT 3SM SHRA OVC010
     FM232100 12011KT 3SM SHRA OVC025 WS020/15040KT
     FM240100 17010KT 2SM +SHRA OVC040=

USA.gov is the U.S. government's official web portal to all federal, state and local government web resources and services.